createdAt,value
2022-12-08T00:01:20.245Z,0.16
2022-12-08T00:03:47.690Z,0.21
2022-12-08T00:06:49.647Z,0.25
2022-12-08T00:09:23.264Z,0.26
2022-12-08T00:11:52.304Z,0.29
2022-12-08T00:14:18.911Z,0.38
2022-12-08T00:16:45.417Z,0.43
2022-12-08T00:19:12.272Z,0.46
2022-12-08T00:21:38.630Z,0.29
2022-12-08T00:24:05.097Z,0.18
2022-12-08T00:26:31.860Z,0.22
2022-12-08T00:28:58.178Z,0.25
2022-12-08T00:31:24.591Z,0.20
2022-12-08T00:33:51.413Z,0.24
2022-12-08T00:36:17.769Z,0.11
2022-12-08T00:38:45.003Z,0.13
2022-12-08T00:41:17.472Z,0.04
2022-12-08T00:43:44.302Z,0.02
2022-12-08T00:46:11.851Z,-0.10
2022-12-08T00:48:38.823Z,-0.14
2022-12-08T00:51:05.265Z,-0.24
2022-12-08T00:53:32.190Z,-0.23
2022-12-08T00:55:58.987Z,-0.27
2022-12-08T00:58:25.338Z,-0.28
2022-12-08T01:00:51.831Z,-0.25
2022-12-08T01:03:18.635Z,-0.19
2022-12-08T01:05:45.011Z,-0.21
2022-12-08T01:08:11.373Z,-0.22
2022-12-08T01:10:38.676Z,-0.25
2022-12-08T01:13:05.377Z,-0.28
2022-12-08T01:15:31.721Z,-0.27
2022-12-08T01:17:58.470Z,-0.30
2022-12-08T01:20:25.364Z,-0.23
2022-12-08T01:22:51.668Z,-0.22
2022-12-08T01:25:18.120Z,-0.25
2022-12-08T01:27:44.759Z,-0.27
2022-12-08T01:30:12.096Z,-0.38
2022-12-08T01:32:38.433Z,-0.47
2022-12-08T01:35:05.406Z,-0.49
2022-12-08T01:37:31.723Z,-0.67
2022-12-08T01:39:58.056Z,-0.67
2022-12-08T01:42:25.412Z,-0.78
2022-12-08T01:44:57.223Z,-0.76
2022-12-08T01:47:30.486Z,-0.89
2022-12-08T01:49:56.999Z,-1.06
2022-12-08T01:52:33.682Z,-1.16
2022-12-08T01:55:08.548Z,-1.30
2022-12-08T01:57:44.146Z,-1.48
2022-12-08T02:00:14.659Z,-1.64
2022-12-08T02:02:59.052Z,-1.66
2022-12-08T02:05:31.545Z,-1.73
2022-12-08T02:08:02.101Z,-1.83
2022-12-08T02:10:30.867Z,-1.90
2022-12-08T02:12:59.090Z,-1.94
2022-12-08T02:15:51.926Z,-1.97
2022-12-08T02:19:22.063Z,-2.09
2022-12-08T02:21:45.732Z,-2.24
2022-12-08T02:24:23.257Z,-2.21
2022-12-08T02:27:21.098Z,-2.37
2022-12-08T02:30:08.765Z,-2.44
2022-12-08T02:33:12.501Z,-2.53
2022-12-08T02:35:51.649Z,-2.54
2022-12-08T02:38:31.538Z,-2.56
2022-12-08T02:41:22.189Z,-2.64
2022-12-08T02:44:08.497Z,-2.68
2022-12-08T02:46:48.560Z,-2.72
2022-12-08T02:49:16.591Z,-2.76
2022-12-08T02:51:42.901Z,-2.72
2022-12-08T02:54:10.060Z,-2.72
2022-12-08T02:56:54.946Z,-2.74
2022-12-08T02:59:47.715Z,-2.73
2022-12-08T03:02:33.214Z,-2.79
2022-12-08T03:05:06.478Z,-2.94
2022-12-08T03:07:44.986Z,-3.00
2022-12-08T03:10:35.854Z,-3.05
2022-12-08T03:13:14.692Z,-3.00
2022-12-08T03:15:43.167Z,-3.07
2022-12-08T03:18:15.846Z,-2.99
2022-12-08T03:20:45.102Z,-2.95
2022-12-08T03:23:14.857Z,-2.88
2022-12-08T03:25:48.359Z,-2.91
2022-12-08T03:28:15.802Z,-3.03
2022-12-08T03:30:47.629Z,-3.06
2022-12-08T03:33:25.746Z,-3.00
2022-12-08T03:35:53.417Z,-3.03
2022-12-08T03:38:19.836Z,-3.04
2022-12-08T03:41:04.818Z,-3.00
2022-12-08T03:43:31.194Z,-3.05
2022-12-08T03:45:58.102Z,-3.07
2022-12-08T03:48:24.460Z,-3.04
2022-12-08T03:50:50.827Z,-3.09
2022-12-08T03:53:17.495Z,-3.12
2022-12-08T03:55:43.828Z,-3.22
2022-12-08T03:58:10.518Z,-3.31
2022-12-08T04:00:36.831Z,-3.42
2022-12-08T04:03:04.423Z,-3.53
2022-12-08T04:05:31.116Z,-3.52
2022-12-08T04:07:58.097Z,-3.54
2022-12-08T04:10:24.538Z,-3.48
2022-12-08T04:12:51.320Z,-3.52
2022-12-08T04:15:17.631Z,-3.58
2022-12-08T04:17:44.293Z,-3.68
2022-12-08T04:20:11.259Z,-3.75
2022-12-08T04:22:37.570Z,-3.65
2022-12-08T04:25:04.744Z,-3.75
2022-12-08T04:27:31.062Z,-3.77
2022-12-08T04:29:57.787Z,-3.67
2022-12-08T04:32:24.110Z,-3.69
2022-12-08T04:34:50.491Z,-3.77
2022-12-08T04:37:17.190Z,-3.76
2022-12-08T04:39:44.957Z,-3.82
2022-12-08T04:42:11.280Z,-3.67
2022-12-08T04:44:37.954Z,-3.70
2022-12-08T04:47:04.434Z,-3.80
2022-12-08T04:49:30.799Z,-3.81
2022-12-08T04:51:57.690Z,-3.79
2022-12-08T04:54:24.039Z,-3.86
2022-12-08T04:56:50.351Z,-3.86
2022-12-08T04:59:17.190Z,-3.93
2022-12-08T05:01:43.617Z,-4.00
2022-12-08T05:04:10.064Z,-4.05
2022-12-08T05:06:37.009Z,-4.07
2022-12-08T05:09:03.385Z,-3.98
2022-12-08T05:11:29.695Z,-4.00
2022-12-08T05:13:56.380Z,-4.02
2022-12-08T05:16:23.066Z,-4.07
2022-12-08T05:18:49.459Z,-4.13
2022-12-08T05:21:15.782Z,-4.14
2022-12-08T05:23:42.419Z,-4.11
2022-12-08T05:26:08.809Z,-4.11
2022-12-08T05:28:43.653Z,-4.13
2022-12-08T05:31:15.741Z,-4.19
2022-12-08T05:33:43.398Z,-4.21
2022-12-08T05:36:12.308Z,-4.21
2022-12-08T05:38:39.638Z,-4.19
2022-12-08T05:41:07.629Z,-4.27
2022-12-08T05:43:34.239Z,-4.31
2022-12-08T05:46:01.571Z,-4.23
2022-12-08T05:48:27.976Z,-4.24
2022-12-08T05:50:54.310Z,-4.33
2022-12-08T05:53:21.276Z,-4.34
2022-12-08T05:55:48.010Z,-4.43
2022-12-08T05:58:16.945Z,-4.50
2022-12-08T06:00:43.868Z,-4.52
2022-12-08T06:03:14.754Z,-4.54
2022-12-08T06:05:42.433Z,-4.44
2022-12-08T06:08:09.223Z,-4.42
2022-12-08T06:10:35.609Z,-4.29
2022-12-08T06:13:02.291Z,-4.34
2022-12-08T06:15:28.618Z,-4.45
2022-12-08T06:17:55.663Z,-4.42
2022-12-08T06:20:21.992Z,-4.41
2022-12-08T06:22:48.319Z,-4.41
2022-12-08T06:25:15.052Z,-4.49
2022-12-08T06:27:41.655Z,-4.49
2022-12-08T06:30:08.934Z,-4.58
2022-12-08T06:32:36.814Z,-4.71
2022-12-08T06:35:03.717Z,-4.69
2022-12-08T06:37:30.042Z,-4.84
2022-12-08T06:39:56.808Z,-4.89
2022-12-08T06:42:42.401Z,-4.86
2022-12-08T06:45:09.685Z,-4.75
2022-12-08T06:47:36.141Z,-4.67
2022-12-08T06:50:03.550Z,-4.58
2022-12-08T06:52:30.161Z,-4.57
2022-12-08T06:54:56.494Z,-4.59
2022-12-08T06:57:24.561Z,-4.64
2022-12-08T06:59:50.912Z,-4.74
2022-12-08T07:02:17.529Z,-4.84
2022-12-08T07:04:44.515Z,-4.83
2022-12-08T07:07:10.870Z,-4.76
2022-12-08T07:09:37.661Z,-4.61
2022-12-08T07:12:04.601Z,-4.60
2022-12-08T07:14:31.298Z,-4.74
2022-12-08T07:16:57.700Z,-4.79
2022-12-08T07:19:24.141Z,-4.73
2022-12-08T07:21:50.803Z,-4.64
2022-12-08T07:24:17.108Z,-4.56
2022-12-08T07:26:43.541Z,-4.57
2022-12-08T07:29:11.017Z,-4.53
2022-12-08T07:31:37.335Z,-4.50
2022-12-08T07:34:03.966Z,-4.49
2022-12-08T07:36:30.822Z,-4.44
2022-12-08T07:38:57.175Z,-4.31
2022-12-08T07:41:25.692Z,-4.23
2022-12-08T07:43:54.019Z,-4.29
2022-12-08T07:46:22.787Z,-4.24
2022-12-08T07:48:49.356Z,-4.18
2022-12-08T07:51:17.315Z,-3.92
2022-12-08T07:53:49.893Z,-3.59
2022-12-08T07:56:20.828Z,-3.42
2022-12-08T07:58:47.553Z,-3.34
2022-12-08T08:01:23.331Z,-3.25
2022-12-08T08:03:49.878Z,-3.19
2022-12-08T08:06:16.578Z,-3.18
2022-12-08T08:08:43.287Z,-3.19
2022-12-08T08:11:18.948Z,-2.96
2022-12-08T08:13:47.606Z,-2.39
2022-12-08T08:16:14.775Z,-1.69
2022-12-08T08:18:41.738Z,-0.95
2022-12-08T08:21:43.020Z,-0.54
2022-12-08T08:23:54.715Z,-0.06
2022-12-08T08:26:21.533Z,0.42
2022-12-08T08:28:48.138Z,0.68
2022-12-08T08:31:14.872Z,0.85
2022-12-08T08:33:41.292Z,1.02
2022-12-08T08:36:09.239Z,1.55
2022-12-08T08:38:40.379Z,1.48
2022-12-08T08:41:10.913Z,1.39
2022-12-08T08:43:38.687Z,0.83
2022-12-08T08:46:06.250Z,-0.09
2022-12-08T08:48:33.675Z,-0.66
2022-12-08T08:51:08.769Z,-1.21
2022-12-08T08:53:35.380Z,-1.44
2022-12-08T08:56:03.056Z,-1.68
2022-12-08T08:58:29.903Z,-1.82
2022-12-08T09:00:56.399Z,-1.86
2022-12-08T09:03:22.735Z,-1.80
2022-12-08T09:05:50.881Z,-1.95
2022-12-08T09:08:17.416Z,-2.02
2022-12-08T09:10:43.855Z,-2.02
2022-12-08T09:13:10.486Z,-1.89
2022-12-08T09:15:37.060Z,-1.68
2022-12-08T09:18:03.840Z,-1.51
2022-12-08T09:20:30.159Z,-1.15
2022-12-08T09:22:56.488Z,-0.95
2022-12-08T09:25:23.446Z,-0.92
2022-12-08T09:27:49.821Z,-0.62
2022-12-08T09:30:16.353Z,-0.57
2022-12-08T09:32:43.263Z,-0.43
2022-12-08T09:35:09.645Z,-0.14
2022-12-08T09:37:35.994Z,0.06
2022-12-08T09:40:03.202Z,-0.04
2022-12-08T09:42:40.219Z,-0.70
2022-12-08T09:45:12.685Z,-0.67
2022-12-08T09:47:57.417Z,-0.94
2022-12-08T09:50:33.086Z,-0.57
2022-12-08T09:53:08.809Z,-0.40
2022-12-08T09:55:46.857Z,-0.64
2022-12-08T09:58:25.504Z,-0.49
2022-12-08T10:00:52.617Z,-0.29
2022-12-08T10:03:30.321Z,-0.56
2022-12-08T10:06:27.069Z,0.01
2022-12-08T10:09:30.141Z,0.42
2022-12-08T10:12:00.648Z,0.16
2022-12-08T10:14:46.046Z,0.72
2022-12-08T10:17:18.524Z,0.85
2022-12-08T10:19:47.023Z,1.16
2022-12-08T10:22:26.818Z,1.21
2022-12-08T10:25:07.187Z,1.28
2022-12-08T10:27:37.451Z,1.15
2022-12-08T10:30:22.439Z,0.98
2022-12-08T10:32:50.988Z,0.72
2022-12-08T10:35:19.662Z,1.08
2022-12-08T10:38:01.312Z,1.32
2022-12-08T10:40:34.377Z,1.43
2022-12-08T10:43:01.950Z,1.54
2022-12-08T10:45:33.171Z,1.59
2022-12-08T10:48:20.161Z,1.57
2022-12-08T10:50:53.925Z,1.56
2022-12-08T10:53:34.185Z,1.54
2022-12-08T10:56:03.278Z,1.43
2022-12-08T10:58:44.100Z,1.61
2022-12-08T11:01:28.188Z,1.47
2022-12-08T11:03:58.839Z,1.59
2022-12-08T11:06:36.999Z,1.70
2022-12-08T11:09:22.567Z,1.26
2022-12-08T11:11:52.112Z,1.76
2022-12-08T11:14:24.529Z,1.68
2022-12-08T11:16:53.974Z,1.80
2022-12-08T11:19:25.875Z,1.69
2022-12-08T11:21:52.191Z,1.82
2022-12-08T11:24:30.221Z,2.03
2022-12-08T11:27:02.862Z,2.31
2022-12-08T11:29:32.126Z,2.32
2022-12-08T11:32:12.078Z,2.47
2022-12-08T11:34:55.909Z,2.55
2022-12-08T11:37:35.135Z,2.26
2022-12-08T11:40:15.913Z,2.33
2022-12-08T11:43:08.443Z,2.26
2022-12-08T11:45:36.929Z,2.43
2022-12-08T11:48:51.321Z,2.18
2022-12-08T11:51:40.112Z,2.25
2022-12-08T11:54:25.779Z,2.01
2022-12-08T11:57:01.114Z,1.99
2022-12-08T11:59:41.573Z,2.12
2022-12-08T12:02:16.614Z,2.14
2022-12-08T12:04:52.549Z,1.60
2022-12-08T12:07:38.089Z,1.96
2022-12-08T12:10:07.748Z,1.88
2022-12-08T12:12:59.809Z,2.23
2022-12-08T12:16:17.504Z,2.22
2022-12-08T12:18:47.915Z,2.21
2022-12-08T12:21:22.599Z,2.24
2022-12-08T12:23:56.772Z,2.15
2022-12-08T12:26:26.099Z,2.45
2022-12-08T12:28:58.304Z,2.26
2022-12-08T12:31:28.914Z,2.33
2022-12-08T12:34:06.406Z,0.94
2022-12-08T12:36:48.141Z,1.24
2022-12-08T12:39:18.063Z,1.76
2022-12-08T12:41:50.255Z,1.93
2022-12-08T12:44:19.374Z,2.10
2022-12-08T12:46:53.455Z,1.88
2022-12-08T12:49:37.961Z,1.94
2022-12-08T12:52:26.505Z,1.54
2022-12-08T12:54:52.843Z,1.43
2022-12-08T12:57:19.211Z,1.08
2022-12-08T12:59:54.695Z,1.18
2022-12-08T13:02:29.804Z,0.60
2022-12-08T13:05:08.560Z,0.16
2022-12-08T13:07:46.252Z,0.00
2022-12-08T13:10:15.994Z,0.11
2022-12-08T13:12:44.249Z,-0.12
2022-12-08T13:15:20.999Z,-0.07
2022-12-08T13:17:49.072Z,-0.08
2022-12-08T13:20:47.507Z,0.07
2022-12-08T13:23:28.349Z,-0.04
2022-12-08T13:26:27.057Z,-0.04
2022-12-08T13:29:01.037Z,0.10
2022-12-08T13:31:50.961Z,0.10
2022-12-08T13:34:32.866Z,-0.21
2022-12-08T13:37:11.846Z,0.12
2022-12-08T13:39:49.579Z,0.24
2022-12-08T13:42:39.856Z,-0.04
2022-12-08T13:45:33.640Z,0.00
2022-12-08T13:57:13.964Z,0.24
2022-12-08T13:59:45.975Z,0.07
2022-12-08T14:02:32.640Z,0.04
2022-12-08T14:07:48.394Z,0.12
2022-12-08T14:10:35.846Z,0.02
2022-12-08T14:13:05.327Z,0.03
2022-12-08T14:15:38.646Z,0.11
2022-12-08T14:18:06.790Z,0.16
2022-12-08T14:20:51.797Z,0.26
2022-12-08T14:23:21.393Z,0.27
2022-12-08T14:25:48.460Z,0.18
2022-12-08T14:28:14.993Z,0.06
2022-12-08T14:30:42.587Z,0.11
2022-12-08T14:33:14.912Z,0.18
2022-12-08T14:35:41.637Z,0.09
2022-12-08T14:38:17.028Z,0.06
2022-12-08T14:41:04.850Z,0.09
2022-12-08T14:43:32.296Z,0.09
2022-12-08T14:46:05.041Z,0.19
2022-12-08T14:48:31.398Z,0.07
2022-12-08T14:50:59.748Z,0.17
2022-12-08T14:53:29.099Z,0.03
2022-12-08T14:55:55.487Z,0.08
2022-12-08T14:58:30.366Z,0.18
2022-12-08T15:00:58.924Z,0.37
2022-12-08T15:03:28.357Z,0.31
2022-12-08T15:06:03.443Z,0.34
2022-12-08T15:08:30.980Z,0.33
2022-12-08T15:11:22.493Z,0.43
2022-12-08T15:13:50.953Z,0.39
2022-12-08T15:16:28.052Z,0.38
2022-12-08T15:19:16.282Z,0.49
2022-12-08T15:21:44.813Z,0.27
2022-12-08T15:24:13.828Z,0.21
2022-12-08T15:26:49.180Z,0.34
2022-12-08T15:29:27.325Z,0.28
2022-12-08T15:31:57.242Z,0.30
2022-12-08T15:34:23.674Z,0.38
2022-12-08T15:36:51.749Z,0.37
2022-12-08T15:39:18.448Z,0.28
2022-12-08T15:41:44.770Z,0.19
2022-12-08T15:44:11.069Z,0.28
2022-12-08T15:46:37.812Z,0.40
2022-12-08T15:49:04.215Z,0.21
2022-12-08T15:51:36.193Z,0.07
2022-12-08T15:54:03.111Z,0.03
2022-12-08T15:56:29.486Z,-0.05
2022-12-08T15:58:57.280Z,0.03
2022-12-08T16:01:24.956Z,0.13
2022-12-08T16:09:38.210Z,0.08
2022-12-08T16:13:06.952Z,0.05
2022-12-08T16:18:07.564Z,-0.01
2022-12-08T16:23:41.521Z,0.04
2022-12-08T16:28:58.481Z,-0.18
2022-12-08T16:31:24.984Z,-0.28
2022-12-08T16:33:52.275Z,-0.37
2022-12-08T16:36:19.047Z,-0.33
2022-12-08T16:38:48.309Z,-0.27
2022-12-08T16:41:35.648Z,-0.15
2022-12-08T16:44:04.970Z,-0.29
2022-12-08T16:46:33.061Z,-0.31
2022-12-08T16:49:01.043Z,-0.31
2022-12-08T16:51:27.828Z,-0.23
2022-12-08T16:53:57.205Z,-0.22
2022-12-08T16:56:32.710Z,-0.19
2022-12-08T16:59:00.829Z,-0.19
2022-12-08T17:01:28.378Z,-0.29
2022-12-08T17:06:42.111Z,-0.41
2022-12-08T17:09:08.710Z,-0.47
2022-12-08T17:11:42.370Z,-0.45
2022-12-08T17:14:09.942Z,-0.43
2022-12-08T17:16:36.988Z,-0.46
2022-12-08T17:19:03.606Z,-0.51
2022-12-08T17:21:30.075Z,-0.57
2022-12-08T17:23:56.785Z,-0.53
2022-12-08T17:26:23.162Z,-0.53
2022-12-08T17:29:00.597Z,-0.45
2022-12-08T17:31:30.324Z,-0.64
2022-12-08T17:34:05.040Z,-0.66
2022-12-08T17:36:31.584Z,-0.59
2022-12-08T17:38:59.776Z,-0.68
2022-12-08T17:41:26.619Z,-0.67
2022-12-08T17:43:53.007Z,-0.63
2022-12-08T17:46:20.652Z,-0.61
2022-12-08T17:48:47.696Z,-0.62
2022-12-08T17:51:14.984Z,-0.53
2022-12-08T17:53:41.327Z,-0.66
2022-12-08T17:56:18.361Z,-0.72
2022-12-08T17:58:47.548Z,-0.79
2022-12-08T18:01:17.685Z,-0.72
2022-12-08T18:03:45.170Z,-0.67
2022-12-08T18:06:12.581Z,-0.70
2022-12-08T18:08:39.634Z,-0.75
2022-12-08T18:11:19.405Z,-0.78
2022-12-08T18:13:47.089Z,-0.67
2022-12-08T18:16:13.934Z,-0.71
2022-12-08T18:18:40.544Z,-0.75
2022-12-08T18:21:07.890Z,-0.75
2022-12-08T18:23:36.554Z,-1.10
2022-12-08T18:26:07.594Z,-1.07
2022-12-08T18:28:35.419Z,-1.04
2022-12-08T18:31:02.128Z,-1.04
2022-12-08T18:33:28.618Z,-1.02
2022-12-08T18:35:55.128Z,-1.10
2022-12-08T18:38:21.498Z,-1.37
2022-12-08T18:40:48.210Z,-1.59
2022-12-08T18:43:14.985Z,-1.67
2022-12-08T18:45:41.395Z,-1.64
2022-12-08T18:48:08.067Z,-1.68
2022-12-08T18:50:34.745Z,-1.80
2022-12-08T18:53:01.059Z,-1.86
2022-12-08T18:55:27.363Z,-1.93
2022-12-08T18:57:54.257Z,-1.85
2022-12-08T19:00:20.952Z,-1.82
2022-12-08T19:02:47.347Z,-1.80
2022-12-08T19:05:14.460Z,-1.73
2022-12-08T19:07:42.360Z,-1.64
2022-12-08T19:10:09.523Z,-1.59
2022-12-08T19:12:36.381Z,-1.49
2022-12-08T19:15:03.321Z,-1.47
2022-12-08T19:17:29.922Z,-1.45
2022-12-08T19:19:56.383Z,-1.49
2022-12-08T19:22:23.114Z,-1.47
2022-12-08T19:24:49.798Z,-1.45
2022-12-08T19:27:16.180Z,-1.35
2022-12-08T19:29:42.920Z,-1.45
2022-12-08T19:32:09.342Z,-1.44
2022-12-08T19:34:35.741Z,-1.50
2022-12-08T19:37:02.491Z,-1.57
2022-12-08T19:39:47.525Z,-1.67
2022-12-08T19:42:38.958Z,-1.67
2022-12-08T19:45:07.577Z,-1.69
2022-12-08T19:47:34.097Z,-1.71
2022-12-08T19:50:19.740Z,-1.76
2022-12-08T19:52:46.159Z,-1.78
2022-12-08T19:55:13.727Z,-1.72
2022-12-08T19:57:40.595Z,-1.69
2022-12-08T20:00:10.198Z,-1.75
2022-12-08T20:02:37.683Z,-1.90
2022-12-08T20:05:08.638Z,-2.03
2022-12-08T20:07:35.175Z,-2.14
2022-12-08T20:10:05.468Z,-2.18
2022-12-08T20:12:31.936Z,-2.33
2022-12-08T20:14:58.301Z,-2.48
2022-12-08T20:17:25.052Z,-2.50
2022-12-08T20:19:51.467Z,-2.52
2022-12-08T20:22:17.827Z,-2.58
2022-12-08T20:24:44.601Z,-2.60
2022-12-08T20:27:11.015Z,-2.68
2022-12-08T20:29:37.846Z,-2.81
2022-12-08T20:32:04.341Z,-2.90
2022-12-08T20:34:31.268Z,-3.05
2022-12-08T20:36:57.978Z,-3.10
2022-12-08T20:39:24.313Z,-3.14
2022-12-08T20:41:52.036Z,-3.21
2022-12-08T20:44:18.998Z,-3.25
2022-12-08T20:46:49.411Z,-3.33
2022-12-08T20:49:16.416Z,-3.37
2022-12-08T20:51:44.381Z,-3.42
2022-12-08T20:54:11.129Z,-3.42
2022-12-08T20:56:43.413Z,-3.46
2022-12-08T20:59:18.304Z,-3.44
2022-12-08T21:01:44.840Z,-3.50
2022-12-08T21:04:13.363Z,-3.59
2022-12-08T21:06:39.977Z,-3.68
2022-12-08T21:09:07.083Z,-3.84
2022-12-08T21:11:33.774Z,-3.87
2022-12-08T21:14:00.134Z,-3.91
2022-12-08T21:16:27.022Z,-3.94
2022-12-08T21:18:53.585Z,-3.92
2022-12-08T21:21:20.094Z,-3.80
2022-12-08T21:23:46.944Z,-3.70
2022-12-08T21:26:16.341Z,-3.54
2022-12-08T21:28:43.639Z,-3.43
2022-12-08T21:31:12.510Z,-3.26
2022-12-08T21:33:39.204Z,-3.15
2022-12-08T21:36:09.080Z,-3.04
2022-12-08T21:38:37.607Z,-3.02
2022-12-08T21:41:16.583Z,-3.01
2022-12-08T21:43:43.440Z,-3.03
2022-12-08T21:46:17.328Z,-3.13
2022-12-08T21:48:44.517Z,-3.25
2022-12-08T21:51:11.006Z,-3.31
2022-12-08T21:53:37.453Z,-3.31
2022-12-08T21:56:09.185Z,-3.35
2022-12-08T21:58:35.990Z,-3.43
2022-12-08T22:01:10.887Z,-3.48
2022-12-08T22:03:38.659Z,-3.63
2022-12-08T22:06:07.471Z,-3.74
2022-12-08T22:08:34.939Z,-3.77
2022-12-08T22:11:02.888Z,-3.85
2022-12-08T22:13:29.335Z,-3.94
2022-12-08T22:16:00.246Z,-3.97
2022-12-08T22:18:27.826Z,-4.03
2022-12-08T22:20:54.978Z,-4.08
2022-12-08T22:23:22.129Z,-4.07
2022-12-08T22:25:58.910Z,-4.13
2022-12-08T22:28:27.575Z,-4.11
2022-12-08T22:30:54.819Z,-4.14
2022-12-08T22:33:21.166Z,-4.06
2022-12-08T22:35:59.958Z,-3.93
2022-12-08T22:38:28.772Z,-3.98
2022-12-08T22:40:55.353Z,-4.01
2022-12-08T22:43:23.236Z,-4.08
2022-12-08T22:45:50.378Z,-4.11
2022-12-08T22:48:17.020Z,-4.07
2022-12-08T22:50:43.652Z,-4.03
2022-12-08T22:53:13.017Z,-3.96
2022-12-08T22:55:43.991Z,-3.97
2022-12-08T22:58:11.620Z,-4.01
2022-12-08T23:00:38.482Z,-4.04
2022-12-08T23:03:05.876Z,-4.12
2022-12-08T23:05:37.126Z,-4.15
2022-12-08T23:08:05.130Z,-4.19
2022-12-08T23:10:33.223Z,-4.14
2022-12-08T23:13:03.811Z,-4.03
2022-12-08T23:15:30.694Z,-4.03
2022-12-08T23:17:57.404Z,-4.08
2022-12-08T23:20:23.824Z,-4.10
2022-12-08T23:22:50.218Z,-4.14
2022-12-08T23:25:19.018Z,-4.19
2022-12-08T23:27:46.107Z,-4.23
2022-12-08T23:30:13.271Z,-4.21
2022-12-08T23:32:40.101Z,-4.22
2022-12-08T23:35:07.178Z,-4.15
2022-12-08T23:37:33.527Z,-4.14
2022-12-08T23:40:00.395Z,-4.09
2022-12-08T23:42:29.545Z,-4.19
2022-12-08T23:44:56.093Z,-4.25
2022-12-08T23:47:22.610Z,-4.21
2022-12-08T23:49:49.595Z,-4.03
2022-12-08T23:52:16.057Z,-4.04
2022-12-08T23:54:42.400Z,-4.13
2022-12-08T23:57:09.275Z,-4.15
2022-12-08T23:59:35.590Z,-4.17
